sensor_id;sensor_type;location;lat;lon;timestamp;pressure;altitude;pressure_sealevel;temperature;humidity
71889;BME280;59762;49.998;14.858;2023-12-07T00:01:46;97257.50;;;0.16;100.00
71889;BME280;59762;49.998;14.858;2023-12-07T00:04:12;97262.84;;;0.14;100.00
71889;BME280;59762;49.998;14.858;2023-12-07T00:06:38;97265.03;;;0.08;100.00
71889;BME280;59762;49.998;14.858;2023-12-07T00:09:03;97261.69;;;0.06;100.00
71889;BME280;59762;49.998;14.858;2023-12-07T00:11:29;97261.09;;;0.15;100.00
71889;BME280;59762;49.998;14.858;2023-12-07T00:13:55;97262.31;;;0.09;100.00
71889;BME280;59762;49.998;14.858;2023-12-07T00:16:21;97261.50;;;0.09;100.00
71889;BME280;59762;49.998;14.858;2023-12-07T00:18:46;97268.50;;;0.08;100.00
71889;BME280;59762;49.998;14.858;2023-12-07T00:21:12;97265.28;;;0.17;100.00
71889;BME280;59762;49.998;14.858;2023-12-07T00:23:38;97268.19;;;0.13;100.00
71889;BME280;59762;49.998;14.858;2023-12-07T00:26:04;97264.56;;;0.16;100.00
71889;BME280;59762;49.998;14.858;2023-12-07T00:28:30;97274.50;;;0.10;100.00
71889;BME280;59762;49.998;14.858;2023-12-07T00:30:56;97275.06;;;0.16;100.00
71889;BME280;59762;49.998;14.858;2023-12-07T00:33:22;97285.16;;;0.22;100.00
71889;BME280;59762;49.998;14.858;2023-12-07T00:35:48;97277.69;;;0.16;100.00
71889;BME280;59762;49.998;14.858;2023-12-07T00:38:14;97285.56;;;0.16;100.00
71889;BME280;59762;49.998;14.858;2023-12-07T00:40:39;97284.41;;;0.19;100.00
71889;BME280;59762;49.998;14.858;2023-12-07T00:43:06;97288.94;;;0.17;100.00
71889;BME280;59762;49.998;14.858;2023-12-07T00:45:33;97295.03;;;0.18;100.00
71889;BME280;59762;49.998;14.858;2023-12-07T00:47:58;97298.19;;;0.23;100.00
71889;BME280;59762;49.998;14.858;2023-12-07T00:50:24;97299.88;;;0.24;100.00
71889;BME280;59762;49.998;14.858;2023-12-07T00:52:50;97294.34;;;0.14;100.00
71889;BME280;59762;49.998;14.858;2023-12-07T00:55:15;97299.44;;;0.17;100.00
71889;BME280;59762;49.998;14.858;2023-12-07T00:57:41;97308.34;;;0.15;100.00
71889;BME280;59762;49.998;14.858;2023-12-07T01:00:08;97299.69;;;0.13;100.00
71889;BME280;59762;49.998;14.858;2023-12-07T01:02:33;97302.06;;;0.17;100.00
71889;BME280;59762;49.998;14.858;2023-12-07T01:05:00;97315.28;;;0.16;100.00
71889;BME280;59762;49.998;14.858;2023-12-07T01:07:25;97312.38;;;0.21;100.00
71889;BME280;59762;49.998;14.858;2023-12-07T01:09:51;97315.53;;;0.26;100.00
71889;BME280;59762;49.998;14.858;2023-12-07T01:12:17;97317.81;;;0.17;100.00
71889;BME280;59762;49.998;14.858;2023-12-07T01:14:43;97317.97;;;0.29;100.00
71889;BME280;59762;49.998;14.858;2023-12-07T01:17:09;97316.47;;;0.25;100.00
71889;BME280;59762;49.998;14.858;2023-12-07T01:19:34;97318.66;;;0.18;100.00
71889;BME280;59762;49.998;14.858;2023-12-07T01:22:00;97322.09;;;0.18;100.00
71889;BME280;59762;49.998;14.858;2023-12-07T01:24:26;97327.44;;;0.17;100.00
71889;BME280;59762;49.998;14.858;2023-12-07T01:26:52;97322.97;;;0.19;100.00
71889;BME280;59762;49.998;14.858;2023-12-07T01:29:17;97316.13;;;0.17;100.00
71889;BME280;59762;49.998;14.858;2023-12-07T01:31:43;97323.91;;;0.18;100.00
71889;BME280;59762;49.998;14.858;2023-12-07T01:34:10;97313.88;;;0.10;100.00
71889;BME280;59762;49.998;14.858;2023-12-07T01:36:35;97321.09;;;0.07;100.00
71889;BME280;59762;49.998;14.858;2023-12-07T01:39:01;97316.50;;;0.10;100.00
71889;BME280;59762;49.998;14.858;2023-12-07T01:41:27;97328.22;;;0.19;100.00
71889;BME280;59762;49.998;14.858;2023-12-07T01:43:53;97321.56;;;0.13;100.00
71889;BME280;59762;49.998;14.858;2023-12-07T01:46:18;97325.78;;;0.16;100.00
71889;BME280;59762;49.998;14.858;2023-12-07T01:48:44;97329.03;;;0.19;100.00
71889;BME280;59762;49.998;14.858;2023-12-07T01:51:14;97324.63;;;0.20;100.00
71889;BME280;59762;49.998;14.858;2023-12-07T01:53:40;97322.97;;;0.19;100.00
71889;BME280;59762;49.998;14.858;2023-12-07T01:56:07;97320.69;;;0.27;100.00
71889;BME280;59762;49.998;14.858;2023-12-07T01:58:34;97324.03;;;0.29;100.00
71889;BME280;59762;49.998;14.858;2023-12-07T02:01:00;97321.59;;;0.26;100.00
71889;BME280;59762;49.998;14.858;2023-12-07T02:03:28;97333.81;;;0.27;100.00
71889;BME280;59762;49.998;14.858;2023-12-07T02:05:55;97334.47;;;0.31;100.00
71889;BME280;59762;49.998;14.858;2023-12-07T02:08:23;97328.16;;;0.33;100.00
71889;BME280;59762;49.998;14.858;2023-12-07T02:10:48;97329.84;;;0.34;100.00
71889;BME280;59762;49.998;14.858;2023-12-07T02:13:14;97339.53;;;0.34;100.00
71889;BME280;59762;49.998;14.858;2023-12-07T02:15:40;97334.28;;;0.34;100.00
71889;BME280;59762;49.998;14.858;2023-12-07T02:18:24;97328.81;;;0.37;100.00
71889;BME280;59762;49.998;14.858;2023-12-07T02:23:23;97338.94;;;0.43;100.00
71889;BME280;59762;49.998;14.858;2023-12-07T02:25:53;97342.50;;;0.42;100.00
71889;BME280;59762;49.998;14.858;2023-12-07T02:28:19;97349.34;;;0.44;100.00
71889;BME280;59762;49.998;14.858;2023-12-07T02:30:45;97355.63;;;0.42;100.00
71889;BME280;59762;49.998;14.858;2023-12-07T02:33:11;97351.84;;;0.46;100.00
71889;BME280;59762;49.998;14.858;2023-12-07T02:35:38;97356.47;;;0.42;100.00
71889;BME280;59762;49.998;14.858;2023-12-07T02:38:06;97356.09;;;0.48;100.00
71889;BME280;59762;49.998;14.858;2023-12-07T02:40:32;97348.09;;;0.50;100.00
71889;BME280;59762;49.998;14.858;2023-12-07T02:43:00;97349.13;;;0.47;100.00
71889;BME280;59762;49.998;14.858;2023-12-07T02:45:26;97353.00;;;0.42;100.00
71889;BME280;59762;49.998;14.858;2023-12-07T02:47:53;97361.44;;;0.47;100.00
71889;BME280;59762;49.998;14.858;2023-12-07T02:50:19;97362.56;;;0.43;100.00
71889;BME280;59762;49.998;14.858;2023-12-07T02:52:45;97370.22;;;0.46;100.00
71889;BME280;59762;49.998;14.858;2023-12-07T02:55:11;97367.81;;;0.43;100.00
71889;BME280;59762;49.998;14.858;2023-12-07T02:57:37;97366.78;;;0.45;100.00
71889;BME280;59762;49.998;14.858;2023-12-07T03:00:04;97364.53;;;0.39;100.00
71889;BME280;59762;49.998;14.858;2023-12-07T03:02:34;97361.06;;;0.39;100.00
71889;BME280;59762;49.998;14.858;2023-12-07T03:05:00;97362.84;;;0.38;100.00
71889;BME280;59762;49.998;14.858;2023-12-07T03:07:27;97363.22;;;0.46;100.00
71889;BME280;59762;49.998;14.858;2023-12-07T03:09:52;97369.84;;;0.52;100.00
71889;BME280;59762;49.998;14.858;2023-12-07T03:12:18;97370.03;;;0.49;100.00
71889;BME280;59762;49.998;14.858;2023-12-07T03:14:43;97376.06;;;0.51;100.00
71889;BME280;59762;49.998;14.858;2023-12-07T03:17:09;97381.94;;;0.54;100.00
71889;BME280;59762;49.998;14.858;2023-12-07T03:19:41;97380.66;;;0.47;100.00
71889;BME280;59762;49.998;14.858;2023-12-07T03:22:07;97381.19;;;0.52;100.00
71889;BME280;59762;49.998;14.858;2023-12-07T03:24:37;97388.44;;;0.49;100.00
71889;BME280;59762;49.998;14.858;2023-12-07T03:27:04;97392.09;;;0.46;100.00
71889;BME280;59762;49.998;14.858;2023-12-07T03:29:31;97387.94;;;0.56;100.00
71889;BME280;59762;49.998;14.858;2023-12-07T03:31:57;97394.00;;;0.44;100.00
71889;BME280;59762;49.998;14.858;2023-12-07T03:34:23;97404.97;;;0.51;100.00
71889;BME280;59762;49.998;14.858;2023-12-07T03:36:49;97400.25;;;0.56;100.00
71889;BME280;59762;49.998;14.858;2023-12-07T03:39:16;97410.41;;;0.48;100.00
71889;BME280;59762;49.998;14.858;2023-12-07T03:41:44;97411.88;;;0.52;100.00
71889;BME280;59762;49.998;14.858;2023-12-07T03:44:10;97409.06;;;0.55;100.00
71889;BME280;59762;49.998;14.858;2023-12-07T03:46:36;97407.38;;;0.54;100.00
71889;BME280;59762;49.998;14.858;2023-12-07T03:49:01;97410.31;;;0.49;100.00
71889;BME280;59762;49.998;14.858;2023-12-07T03:51:28;97418.91;;;0.51;100.00
71889;BME280;59762;49.998;14.858;2023-12-07T03:53:54;97416.50;;;0.48;100.00
71889;BME280;59762;49.998;14.858;2023-12-07T03:56:24;97423.72;;;0.45;100.00
71889;BME280;59762;49.998;14.858;2023-12-07T03:58:50;97418.28;;;0.48;100.00
71889;BME280;59762;49.998;14.858;2023-12-07T04:01:16;97421.53;;;0.51;100.00
71889;BME280;59762;49.998;14.858;2023-12-07T04:03:42;97422.59;;;0.49;100.00
71889;BME280;59762;49.998;14.858;2023-12-07T04:06:08;97421.63;;;0.50;100.00
71889;BME280;59762;49.998;14.858;2023-12-07T04:08:34;97425.13;;;0.50;100.00
71889;BME280;59762;49.998;14.858;2023-12-07T04:11:00;97426.25;;;0.46;100.00
71889;BME280;59762;49.998;14.858;2023-12-07T04:13:26;97425.97;;;0.51;100.00
71889;BME280;59762;49.998;14.858;2023-12-07T04:15:51;97424.34;;;0.62;100.00
71889;BME280;59762;49.998;14.858;2023-12-07T04:18:17;97427.75;;;0.50;100.00
71889;BME280;59762;49.998;14.858;2023-12-07T04:20:43;97424.63;;;0.58;100.00
71889;BME280;59762;49.998;14.858;2023-12-07T04:23:09;97428.28;;;0.55;100.00
71889;BME280;59762;49.998;14.858;2023-12-07T04:25:35;97430.19;;;0.53;100.00
71889;BME280;59762;49.998;14.858;2023-12-07T04:28:00;97433.53;;;0.55;100.00
71889;BME280;59762;49.998;14.858;2023-12-07T04:30:26;97436.56;;;0.49;100.00
71889;BME280;59762;49.998;14.858;2023-12-07T04:32:51;97437.13;;;0.54;100.00
71889;BME280;59762;49.998;14.858;2023-12-07T04:35:18;97451.28;;;0.52;100.00
71889;BME280;59762;49.998;14.858;2023-12-07T04:37:43;97448.47;;;0.55;100.00
71889;BME280;59762;49.998;14.858;2023-12-07T04:40:10;97451.09;;;0.55;100.00
71889;BME280;59762;49.998;14.858;2023-12-07T04:42:36;97448.75;;;0.50;100.00
71889;BME280;59762;49.998;14.858;2023-12-07T04:45:02;97454.00;;;0.50;100.00
71889;BME280;59762;49.998;14.858;2023-12-07T04:47:28;97443.09;;;0.56;100.00
71889;BME280;59762;49.998;14.858;2023-12-07T04:49:54;97448.56;;;0.53;100.00
71889;BME280;59762;49.998;14.858;2023-12-07T04:52:19;97446.53;;;0.44;100.00
71889;BME280;59762;49.998;14.858;2023-12-07T04:54:45;97454.47;;;0.57;100.00
71889;BME280;59762;49.998;14.858;2023-12-07T04:57:11;97466.66;;;0.58;100.00
71889;BME280;59762;49.998;14.858;2023-12-07T04:59:36;97460.66;;;0.56;100.00
71889;BME280;59762;49.998;14.858;2023-12-07T05:02:02;97458.53;;;0.48;100.00
71889;BME280;59762;49.998;14.858;2023-12-07T05:04:28;97463.94;;;0.59;100.00
71889;BME280;59762;49.998;14.858;2023-12-07T05:06:53;97462.63;;;0.52;100.00
71889;BME280;59762;49.998;14.858;2023-12-07T05:09:19;97471.28;;;0.54;100.00
71889;BME280;59762;49.998;14.858;2023-12-07T05:11:45;97462.84;;;0.49;100.00
71889;BME280;59762;49.998;14.858;2023-12-07T05:14:11;97465.25;;;0.66;100.00
71889;BME280;59762;49.998;14.858;2023-12-07T05:16:36;97470.06;;;0.60;100.00
71889;BME280;59762;49.998;14.858;2023-12-07T05:19:02;97469.19;;;0.59;100.00
71889;BME280;59762;49.998;14.858;2023-12-07T05:21:28;97474.06;;;0.51;100.00
71889;BME280;59762;49.998;14.858;2023-12-07T05:23:54;97477.47;;;0.53;100.00
71889;BME280;59762;49.998;14.858;2023-12-07T05:26:19;97480.84;;;0.55;100.00
71889;BME280;59762;49.998;14.858;2023-12-07T05:28:47;97480.19;;;0.52;100.00
71889;BME280;59762;49.998;14.858;2023-12-07T05:31:16;97478.56;;;0.63;100.00
71889;BME280;59762;49.998;14.858;2023-12-07T05:33:42;97492.16;;;0.70;100.00
71889;BME280;59762;49.998;14.858;2023-12-07T05:36:08;97480.16;;;0.66;100.00
71889;BME280;59762;49.998;14.858;2023-12-07T05:38:34;97483.53;;;0.54;100.00
71889;BME280;59762;49.998;14.858;2023-12-07T05:41:00;97484.22;;;0.57;100.00
71889;BME280;59762;49.998;14.858;2023-12-07T05:43:25;97491.88;;;0.60;100.00
71889;BME280;59762;49.998;14.858;2023-12-07T05:45:51;97487.22;;;0.51;100.00
71889;BME280;59762;49.998;14.858;2023-12-07T05:48:16;97486.94;;;0.56;100.00
71889;BME280;59762;49.998;14.858;2023-12-07T05:50:42;97488.06;;;0.52;100.00
71889;BME280;59762;49.998;14.858;2023-12-07T05:53:08;97492.84;;;0.59;100.00
71889;BME280;59762;49.998;14.858;2023-12-07T05:55:34;97489.47;;;0.57;100.00
71889;BME280;59762;49.998;14.858;2023-12-07T05:58:00;97494.16;;;0.66;100.00
71889;BME280;59762;49.998;14.858;2023-12-07T06:00:25;97497.16;;;0.60;100.00
71889;BME280;59762;49.998;14.858;2023-12-07T06:02:51;97499.97;;;0.57;100.00
71889;BME280;59762;49.998;14.858;2023-12-07T06:05:17;97494.59;;;0.59;100.00
71889;BME280;59762;49.998;14.858;2023-12-07T06:07:43;97496.31;;;0.60;100.00
71889;BME280;59762;49.998;14.858;2023-12-07T06:10:09;97497.16;;;0.60;100.00
71889;BME280;59762;49.998;14.858;2023-12-07T06:12:34;97501.28;;;0.50;100.00
71889;BME280;59762;49.998;14.858;2023-12-07T06:15:00;97507.09;;;0.55;100.00
71889;BME280;59762;49.998;14.858;2023-12-07T06:17:26;97508.69;;;0.58;100.00
71889;BME280;59762;49.998;14.858;2023-12-07T06:19:52;97507.97;;;0.56;100.00
71889;BME280;59762;49.998;14.858;2023-12-07T06:22:18;97505.59;;;0.51;100.00
71889;BME280;59762;49.998;14.858;2023-12-07T06:24:44;97511.72;;;0.52;100.00
71889;BME280;59762;49.998;14.858;2023-12-07T06:27:10;97514.44;;;0.50;100.00
71889;BME280;59762;49.998;14.858;2023-12-07T06:29:36;97509.09;;;0.52;100.00
71889;BME280;59762;49.998;14.858;2023-12-07T06:32:01;97517.44;;;0.58;100.00
71889;BME280;59762;49.998;14.858;2023-12-07T06:34:27;97521.28;;;0.53;100.00
71889;BME280;59762;49.998;14.858;2023-12-07T06:36:53;97522.38;;;0.63;100.00
71889;BME280;59762;49.998;14.858;2023-12-07T06:39:19;97521.81;;;0.58;100.00
71889;BME280;59762;49.998;14.858;2023-12-07T06:41:44;97523.25;;;0.49;100.00
71889;BME280;59762;49.998;14.858;2023-12-07T06:44:10;97526.34;;;0.56;100.00
71889;BME280;59762;49.998;14.858;2023-12-07T06:46:36;97529.72;;;0.58;100.00
71889;BME280;59762;49.998;14.858;2023-12-07T06:49:02;97526.81;;;0.62;100.00
71889;BME280;59762;49.998;14.858;2023-12-07T06:51:27;97538.16;;;0.63;100.00
71889;BME280;59762;49.998;14.858;2023-12-07T06:53:53;97537.41;;;0.61;100.00
71889;BME280;59762;49.998;14.858;2023-12-07T06:56:19;97541.63;;;0.63;100.00
71889;BME280;59762;49.998;14.858;2023-12-07T06:58:44;97544.34;;;0.62;100.00
71889;BME280;59762;49.998;14.858;2023-12-07T07:01:10;97545.19;;;0.62;100.00
71889;BME280;59762;49.998;14.858;2023-12-07T07:03:36;97554.38;;;0.55;100.00
71889;BME280;59762;49.998;14.858;2023-12-07T07:06:01;97548.97;;;0.58;100.00
71889;BME280;59762;49.998;14.858;2023-12-07T07:08:27;97547.16;;;0.59;100.00
71889;BME280;59762;49.998;14.858;2023-12-07T07:10:54;97547.53;;;0.67;100.00
71889;BME280;59762;49.998;14.858;2023-12-07T07:13:19;97546.03;;;0.63;100.00
71889;BME280;59762;49.998;14.858;2023-12-07T07:15:45;97551.00;;;0.67;100.00
71889;BME280;59762;49.998;14.858;2023-12-07T07:18:13;97546.88;;;0.63;100.00
71889;BME280;59762;49.998;14.858;2023-12-07T07:20:39;97547.34;;;0.70;100.00
71889;BME280;59762;49.998;14.858;2023-12-07T07:23:05;97554.84;;;0.76;100.00
71889;BME280;59762;49.998;14.858;2023-12-07T07:25:33;97554.97;;;0.74;100.00
71889;BME280;59762;49.998;14.858;2023-12-07T07:27:59;97557.00;;;0.69;100.00
71889;BME280;59762;49.998;14.858;2023-12-07T07:30:24;97561.13;;;0.73;100.00
71889;BME280;59762;49.998;14.858;2023-12-07T07:32:50;97557.38;;;0.77;100.00
71889;BME280;59762;49.998;14.858;2023-12-07T07:35:16;97555.88;;;0.73;100.00
71889;BME280;59762;49.998;14.858;2023-12-07T07:37:42;97570.81;;;0.73;100.00
71889;BME280;59762;49.998;14.858;2023-12-07T07:40:08;97566.00;;;0.65;100.00
71889;BME280;59762;49.998;14.858;2023-12-07T07:42:38;97561.22;;;0.72;100.00
71889;BME280;59762;49.998;14.858;2023-12-07T07:45:07;97557.13;;;0.68;100.00
71889;BME280;59762;49.998;14.858;2023-12-07T07:47:33;97559.34;;;0.88;100.00
71889;BME280;59762;49.998;14.858;2023-12-07T07:49:59;97562.72;;;0.90;100.00
71889;BME280;59762;49.998;14.858;2023-12-07T07:52:25;97563.09;;;0.84;100.00
71889;BME280;59762;49.998;14.858;2023-12-07T07:54:50;97567.59;;;0.96;100.00
71889;BME280;59762;49.998;14.858;2023-12-07T07:57:16;97565.91;;;0.95;100.00
71889;BME280;59762;49.998;14.858;2023-12-07T07:59:43;97568.31;;;0.98;100.00
71889;BME280;59762;49.998;14.858;2023-12-07T08:02:08;97565.88;;;1.09;100.00
71889;BME280;59762;49.998;14.858;2023-12-07T08:04:34;97569.72;;;1.03;100.00
71889;BME280;59762;49.998;14.858;2023-12-07T08:07:00;97571.81;;;0.98;100.00
71889;BME280;59762;49.998;14.858;2023-12-07T08:09:25;97569.69;;;1.17;100.00
71889;BME280;59762;49.998;14.858;2023-12-07T08:11:51;97580.13;;;1.19;100.00
71889;BME280;59762;49.998;14.858;2023-12-07T08:14:17;97574.13;;;1.17;100.00
71889;BME280;59762;49.998;14.858;2023-12-07T08:16:44;97578.03;;;1.24;100.00
71889;BME280;59762;49.998;14.858;2023-12-07T08:19:12;97569.06;;;1.14;100.00
71889;BME280;59762;49.998;14.858;2023-12-07T08:21:38;97570.00;;;1.13;100.00
71889;BME280;59762;49.998;14.858;2023-12-07T08:24:04;97570.16;;;1.24;100.00
71889;BME280;59762;49.998;14.858;2023-12-07T08:26:31;97575.53;;;1.22;100.00
71889;BME280;59762;49.998;14.858;2023-12-07T08:28:57;97583.31;;;1.24;100.00
71889;BME280;59762;49.998;14.858;2023-12-07T08:31:23;97578.75;;;1.13;100.00
71889;BME280;59762;49.998;14.858;2023-12-07T08:33:50;97582.59;;;1.08;100.00
71889;BME280;59762;49.998;14.858;2023-12-07T08:36:16;97586.69;;;1.26;100.00
71889;BME280;59762;49.998;14.858;2023-12-07T08:38:42;97587.91;;;1.20;100.00
71889;BME280;59762;49.998;14.858;2023-12-07T08:41:08;97588.09;;;1.17;100.00
71889;BME280;59762;49.998;14.858;2023-12-07T08:43:34;97590.47;;;1.22;100.00
71889;BME280;59762;49.998;14.858;2023-12-07T08:46:00;97599.84;;;1.26;100.00
71889;BME280;59762;49.998;14.858;2023-12-07T08:48:25;97605.97;;;1.12;100.00
71889;BME280;59762;49.998;14.858;2023-12-07T08:50:51;97598.16;;;1.25;100.00
71889;BME280;59762;49.998;14.858;2023-12-07T08:53:17;97605.38;;;1.35;100.00
71889;BME280;59762;49.998;14.858;2023-12-07T08:55:43;97605.25;;;1.51;100.00
71889;BME280;59762;49.998;14.858;2023-12-07T08:58:09;97603.66;;;1.48;100.00
71889;BME280;59762;49.998;14.858;2023-12-07T09:00:37;97605.06;;;1.40;100.00
71889;BME280;59762;49.998;14.858;2023-12-07T09:03:03;97603.66;;;1.48;100.00
71889;BME280;59762;49.998;14.858;2023-12-07T09:05:29;97596.59;;;1.49;100.00
71889;BME280;59762;49.998;14.858;2023-12-07T09:07:56;97597.53;;;1.48;100.00
71889;BME280;59762;49.998;14.858;2023-12-07T09:10:22;97604.97;;;1.41;100.00
71889;BME280;59762;49.998;14.858;2023-12-07T09:12:48;97596.81;;;1.32;100.00
71889;BME280;59762;49.998;14.858;2023-12-07T09:15:14;97607.19;;;1.47;100.00
71889;BME280;59762;49.998;14.858;2023-12-07T09:17:40;97611.56;;;1.34;100.00
71889;BME280;59762;49.998;14.858;2023-12-07T09:20:09;97608.06;;;1.48;100.00
71889;BME280;59762;49.998;14.858;2023-12-07T09:22:40;97606.56;;;1.44;100.00
71889;BME280;59762;49.998;14.858;2023-12-07T09:25:06;97603.38;;;1.39;100.00
71889;BME280;59762;49.998;14.858;2023-12-07T09:27:33;97607.88;;;1.51;100.00
71889;BME280;59762;49.998;14.858;2023-12-07T09:30:01;97611.09;;;1.42;100.00
71889;BME280;59762;49.998;14.858;2023-12-07T09:32:27;97604.38;;;1.50;100.00
71889;BME280;59762;49.998;14.858;2023-12-07T09:34:53;97612.28;;;1.50;100.00
71889;BME280;59762;49.998;14.858;2023-12-07T09:37:19;97612.97;;;1.40;100.00
71889;BME280;59762;49.998;14.858;2023-12-07T09:39:45;97609.06;;;1.59;100.00
71889;BME280;59762;49.998;14.858;2023-12-07T09:42:11;97610.69;;;1.48;100.00
71889;BME280;59762;49.998;14.858;2023-12-07T09:44:37;97609.00;;;1.47;100.00
71889;BME280;59762;49.998;14.858;2023-12-07T09:47:03;97612.91;;;1.54;100.00
71889;BME280;59762;49.998;14.858;2023-12-07T09:49:29;97609.16;;;1.58;100.00
71889;BME280;59762;49.998;14.858;2023-12-07T09:51:56;97608.00;;;1.62;100.00
71889;BME280;59762;49.998;14.858;2023-12-07T09:54:23;97611.53;;;1.75;100.00
71889;BME280;59762;49.998;14.858;2023-12-07T09:56:48;97609.16;;;1.84;100.00
71889;BME280;59762;49.998;14.858;2023-12-07T09:59:14;97607.66;;;1.54;100.00
71889;BME280;59762;49.998;14.858;2023-12-07T10:01:40;97606.44;;;1.98;100.00
71889;BME280;59762;49.998;14.858;2023-12-07T10:04:16;97608.75;;;1.90;100.00
71889;BME280;59762;49.998;14.858;2023-12-07T10:06:42;97606.41;;;1.86;100.00
71889;BME280;59762;49.998;14.858;2023-12-07T10:09:10;97605.13;;;1.79;100.00
71889;BME280;59762;49.998;14.858;2023-12-07T10:11:37;97592.03;;;1.65;100.00
71889;BME280;59762;49.998;14.858;2023-12-07T10:14:03;97602.06;;;1.72;100.00
71889;BME280;59762;49.998;14.858;2023-12-07T10:16:28;97602.56;;;1.65;100.00
71889;BME280;59762;49.998;14.858;2023-12-07T10:18:54;97603.25;;;1.81;100.00
71889;BME280;59762;49.998;14.858;2023-12-07T10:21:40;97601.31;;;1.70;100.00
71889;BME280;59762;49.998;14.858;2023-12-07T10:24:06;97596.06;;;1.70;100.00
71889;BME280;59762;49.998;14.858;2023-12-07T10:26:32;97594.59;;;1.79;100.00
71889;BME280;59762;49.998;14.858;2023-12-07T10:28:58;97603.34;;;1.79;100.00
71889;BME280;59762;49.998;14.858;2023-12-07T10:31:25;97598.53;;;1.86;100.00
71889;BME280;59762;49.998;14.858;2023-12-07T10:33:51;97594.34;;;1.69;100.00
71889;BME280;59762;49.998;14.858;2023-12-07T10:36:17;97586.59;;;1.80;100.00
71889;BME280;59762;49.998;14.858;2023-12-07T10:38:43;97591.78;;;1.82;100.00
71889;BME280;59762;49.998;14.858;2023-12-07T10:41:12;97583.16;;;1.92;100.00
71889;BME280;59762;49.998;14.858;2023-12-07T10:43:42;97586.09;;;1.88;100.00
71889;BME280;59762;49.998;14.858;2023-12-07T10:46:13;97589.44;;;1.77;100.00
71889;BME280;59762;49.998;14.858;2023-12-07T10:48:40;97587.66;;;1.78;100.00
71889;BME280;59762;49.998;14.858;2023-12-07T10:51:08;97593.16;;;1.87;100.00
71889;BME280;59762;49.998;14.858;2023-12-07T10:53:44;97588.53;;;2.03;100.00
71889;BME280;59762;49.998;14.858;2023-12-07T10:56:11;97588.44;;;1.92;100.00
71889;BME280;59762;49.998;14.858;2023-12-07T10:58:40;97588.25;;;1.69;100.00
71889;BME280;59762;49.998;14.858;2023-12-07T11:01:07;97592.44;;;1.59;100.00
71889;BME280;59762;49.998;14.858;2023-12-07T11:03:37;97587.75;;;1.50;100.00
71889;BME280;59762;49.998;14.858;2023-12-07T11:06:07;97586.16;;;1.47;100.00
71889;BME280;59762;49.998;14.858;2023-12-07T11:11:10;97589.50;;;1.63;100.00
71889;BME280;59762;49.998;14.858;2023-12-07T11:13:40;97589.06;;;1.69;100.00
71889;BME280;59762;49.998;14.858;2023-12-07T11:16:12;97587.72;;;1.64;100.00
71889;BME280;59762;49.998;14.858;2023-12-07T11:18:38;97592.00;;;1.52;100.00
71889;BME280;59762;49.998;14.858;2023-12-07T11:21:04;97587.88;;;1.48;100.00
71889;BME280;59762;49.998;14.858;2023-12-07T11:23:31;97592.88;;;1.65;100.00
71889;BME280;59762;49.998;14.858;2023-12-07T11:25:56;97591.94;;;1.66;100.00
71889;BME280;59762;49.998;14.858;2023-12-07T11:28:36;97592.91;;;1.51;100.00
71889;BME280;59762;49.998;14.858;2023-12-07T11:31:02;97590.50;;;1.48;100.00
71889;BME280;59762;49.998;14.858;2023-12-07T11:33:29;97587.19;;;1.45;100.00
71889;BME280;59762;49.998;14.858;2023-12-07T11:38:27;97589.81;;;1.45;100.00
71889;BME280;59762;49.998;14.858;2023-12-07T11:40:54;97593.53;;;1.69;100.00
71889;BME280;59762;49.998;14.858;2023-12-07T11:45:59;97582.09;;;1.56;100.00
71889;BME280;59762;49.998;14.858;2023-12-07T11:48:25;97580.53;;;1.66;100.00
71889;BME280;59762;49.998;14.858;2023-12-07T11:53:31;97588.59;;;1.50;100.00
71889;BME280;59762;49.998;14.858;2023-12-07T11:55:58;97590.13;;;1.67;100.00
71889;BME280;59762;49.998;14.858;2023-12-07T11:58:28;97586.72;;;1.52;100.00
71889;BME280;59762;49.998;14.858;2023-12-07T12:00:54;97581.56;;;1.51;100.00
71889;BME280;59762;49.998;14.858;2023-12-07T12:03:29;97582.59;;;1.48;100.00
71889;BME280;59762;49.998;14.858;2023-12-07T12:05:55;97582.25;;;1.40;100.00
71889;BME280;59762;49.998;14.858;2023-12-07T12:08:22;97584.19;;;1.51;100.00
71889;BME280;59762;49.998;14.858;2023-12-07T12:10:49;97587.63;;;1.65;100.00
71889;BME280;59762;49.998;14.858;2023-12-07T12:13:15;97574.38;;;1.79;100.00
71889;BME280;59762;49.998;14.858;2023-12-07T12:15:41;97576.34;;;1.63;100.00
71889;BME280;59762;49.998;14.858;2023-12-07T12:18:08;97575.03;;;1.83;100.00
71889;BME280;59762;49.998;14.858;2023-12-07T12:20:35;97577.13;;;1.78;100.00
71889;BME280;59762;49.998;14.858;2023-12-07T12:23:01;97570.59;;;1.44;100.00
71889;BME280;59762;49.998;14.858;2023-12-07T12:25:29;97570.66;;;1.69;100.00
71889;BME280;59762;49.998;14.858;2023-12-07T12:27:57;97577.19;;;1.64;100.00
71889;BME280;59762;49.998;14.858;2023-12-07T12:30:23;97576.69;;;1.71;100.00
71889;BME280;59762;49.998;14.858;2023-12-07T12:32:50;97568.47;;;1.76;100.00
71889;BME280;59762;49.998;14.858;2023-12-07T12:35:19;97574.94;;;1.84;100.00
71889;BME280;59762;49.998;14.858;2023-12-07T12:37:46;97571.84;;;1.78;100.00
71889;BME280;59762;49.998;14.858;2023-12-07T12:40:13;97574.25;;;1.68;100.00
71889;BME280;59762;49.998;14.858;2023-12-07T12:42:59;97577.13;;;1.51;100.00
71889;BME280;59762;49.998;14.858;2023-12-07T12:45:25;97577.28;;;1.62;100.00
71889;BME280;59762;49.998;14.858;2023-12-07T12:47:51;97571.94;;;1.64;100.00
71889;BME280;59762;49.998;14.858;2023-12-07T12:53:04;97573.19;;;1.71;100.00
71889;BME280;59762;49.998;14.858;2023-12-07T12:55:32;97570.28;;;1.75;100.00
71889;BME280;59762;49.998;14.858;2023-12-07T12:57:58;97572.72;;;1.52;100.00
71889;BME280;59762;49.998;14.858;2023-12-07T13:00:27;97573.84;;;1.48;100.00
71889;BME280;59762;49.998;14.858;2023-12-07T13:02:53;97574.59;;;1.50;100.00